LFPM 180200Z AUTO 25003KT 8000 NSC M02/M03 Q1020

Les avions qui composent notre flotte

Avion Robin DR400-100

Avion école

(freins aux palonniers)

F-GGJG
   * tarif promotionnel appliqué pendant la formation des élèves non brevetés